sensor_id;sensor_type;location;lat;lon;timestamp;temperature;humidity
47022;DHT22;32779;52.264;6.154;2023-05-01T00:02:08;10.30;99.90
47022;DHT22;32779;52.264;6.154;2023-05-01T00:04:34;10.20;99.90
47022;DHT22;32779;52.264;6.154;2023-05-01T00:06:59;10.20;99.90
47022;DHT22;32779;52.264;6.154;2023-05-01T00:09:28;10.20;99.90
47022;DHT22;32779;52.264;6.154;2023-05-01T00:11:53;10.10;99.90
47022;DHT22;32779;52.264;6.154;2023-05-01T00:14:19;10.20;99.90
47022;DHT22;32779;52.264;6.154;2023-05-01T00:16:45;10.10;99.90
47022;DHT22;32779;52.264;6.154;2023-05-01T00:19:11;10.10;99.90
47022;DHT22;32779;52.264;6.154;2023-05-01T00:21:37;10.00;99.90
47022;DHT22;32779;52.264;6.154;2023-05-01T00:24:03;10.00;99.90
47022;DHT22;32779;52.264;6.154;2023-05-01T00:26:28;9.90;99.90
47022;DHT22;32779;52.264;6.154;2023-05-01T00:28:56;9.90;99.90
47022;DHT22;32779;52.264;6.154;2023-05-01T00:31:23;9.90;99.90
47022;DHT22;32779;52.264;6.154;2023-05-01T00:33:49;9.80;99.90
47022;DHT22;32779;52.264;6.154;2023-05-01T00:36:15;9.80;99.90
47022;DHT22;32779;52.264;6.154;2023-05-01T00:38:40;9.70;99.90
47022;DHT22;32779;52.264;6.154;2023-05-01T00:41:06;9.70;99.90
47022;DHT22;32779;52.264;6.154;2023-05-01T00:43:32;9.70;99.90
47022;DHT22;32779;52.264;6.154;2023-05-01T00:45:58;9.60;99.90
47022;DHT22;32779;52.264;6.154;2023-05-01T00:48:24;9.60;99.90
47022;DHT22;32779;52.264;6.154;2023-05-01T00:50:50;9.60;99.90
47022;DHT22;32779;52.264;6.154;2023-05-01T00:53:17;9.50;99.90
47022;DHT22;32779;52.264;6.154;2023-05-01T00:55:44;9.50;99.90
47022;DHT22;32779;52.264;6.154;2023-05-01T00:58:10;9.50;99.90
47022;DHT22;32779;52.264;6.154;2023-05-01T01:00:36;9.40;99.90
47022;DHT22;32779;52.264;6.154;2023-05-01T01:03:03;9.40;99.90
47022;DHT22;32779;52.264;6.154;2023-05-01T01:05:29;9.30;99.90
47022;DHT22;32779;52.264;6.154;2023-05-01T01:13:37;9.10;99.90
47022;DHT22;32779;52.264;6.154;2023-05-01T01:16:15;9.00;99.90
47022;DHT22;32779;52.264;6.154;2023-05-01T01:18:51;9.00;99.90
47022;DHT22;32779;52.264;6.154;2023-05-01T01:26:50;8.90;99.90
47022;DHT22;32779;52.264;6.154;2023-05-01T01:32:15;8.80;99.90
47022;DHT22;32779;52.264;6.154;2023-05-01T01:34:48;8.70;99.90
47022;DHT22;32779;52.264;6.154;2023-05-01T01:37:31;8.70;99.90
47022;DHT22;32779;52.264;6.154;2023-05-01T01:40:13;8.70;99.90
47022;DHT22;32779;52.264;6.154;2023-05-01T01:42:52;8.60;99.90
47022;DHT22;32779;52.264;6.154;2023-05-01T01:45:37;8.60;99.90
47022;DHT22;32779;52.264;6.154;2023-05-01T01:48:07;8.60;99.90
47022;DHT22;32779;52.264;6.154;2023-05-01T01:50:35;8.60;99.90
47022;DHT22;32779;52.264;6.154;2023-05-01T01:53:03;8.70;99.90
47022;DHT22;32779;52.264;6.154;2023-05-01T01:55:30;8.70;99.90
47022;DHT22;32779;52.264;6.154;2023-05-01T01:57:57;8.80;99.90
47022;DHT22;32779;52.264;6.154;2023-05-01T02:00:24;8.90;99.90
47022;DHT22;32779;52.264;6.154;2023-05-01T02:02:50;9.00;99.90
47022;DHT22;32779;52.264;6.154;2023-05-01T02:05:18;9.10;99.90
47022;DHT22;32779;52.264;6.154;2023-05-01T02:07:47;9.20;99.90
47022;DHT22;32779;52.264;6.154;2023-05-01T02:10:14;9.20;99.90
47022;DHT22;32779;52.264;6.154;2023-05-01T02:12:50;9.20;99.90
47022;DHT22;32779;52.264;6.154;2023-05-01T02:15:17;9.30;99.90
47022;DHT22;32779;52.264;6.154;2023-05-01T02:17:43;9.30;99.90
47022;DHT22;32779;52.264;6.154;2023-05-01T02:20:10;9.30;99.90
47022;DHT22;32779;52.264;6.154;2023-05-01T02:22:38;9.30;99.90
47022;DHT22;32779;52.264;6.154;2023-05-01T02:25:06;9.30;99.90
47022;DHT22;32779;52.264;6.154;2023-05-01T02:27:39;9.30;99.90
47022;DHT22;32779;52.264;6.154;2023-05-01T02:30:08;9.30;99.90
47022;DHT22;32779;52.264;6.154;2023-05-01T02:32:34;9.30;99.90
47022;DHT22;32779;52.264;6.154;2023-05-01T02:35:00;9.40;99.90
47022;DHT22;32779;52.264;6.154;2023-05-01T02:37:26;9.40;99.90
47022;DHT22;32779;52.264;6.154;2023-05-01T02:39:52;9.30;99.90
47022;DHT22;32779;52.264;6.154;2023-05-01T02:42:21;9.30;99.90
47022;DHT22;32779;52.264;6.154;2023-05-01T02:44:56;9.30;99.90
47022;DHT22;32779;52.264;6.154;2023-05-01T02:47:22;9.20;99.90
47022;DHT22;32779;52.264;6.154;2023-05-01T02:49:50;9.20;99.90
47022;DHT22;32779;52.264;6.154;2023-05-01T02:52:18;9.20;99.90
47022;DHT22;32779;52.264;6.154;2023-05-01T02:54:44;9.10;99.90
47022;DHT22;32779;52.264;6.154;2023-05-01T02:57:11;9.10;99.90
47022;DHT22;32779;52.264;6.154;2023-05-01T02:59:36;9.00;99.90
47022;DHT22;32779;52.264;6.154;2023-05-01T03:02:02;9.00;99.90
47022;DHT22;32779;52.264;6.154;2023-05-01T03:04:28;9.00;99.90
47022;DHT22;32779;52.264;6.154;2023-05-01T03:06:54;9.00;99.90
47022;DHT22;32779;52.264;6.154;2023-05-01T03:09:20;9.00;99.90
47022;DHT22;32779;52.264;6.154;2023-05-01T03:11:46;9.00;99.90
47022;DHT22;32779;52.264;6.154;2023-05-01T03:14:12;9.00;99.90
47022;DHT22;32779;52.264;6.154;2023-05-01T03:16:37;9.00;99.90
47022;DHT22;32779;52.264;6.154;2023-05-01T03:19:03;9.00;99.90
47022;DHT22;32779;52.264;6.154;2023-05-01T03:21:29;9.00;99.90
47022;DHT22;32779;52.264;6.154;2023-05-01T03:23:56;9.00;99.90
47022;DHT22;32779;52.264;6.154;2023-05-01T03:26:22;8.90;99.90
47022;DHT22;32779;52.264;6.154;2023-05-01T03:28:47;8.90;99.90
47022;DHT22;32779;52.264;6.154;2023-05-01T03:31:13;8.80;99.90
47022;DHT22;32779;52.264;6.154;2023-05-01T03:33:38;8.90;99.90
47022;DHT22;32779;52.264;6.154;2023-05-01T03:36:05;8.90;99.90
47022;DHT22;32779;52.264;6.154;2023-05-01T03:38:31;8.80;99.90
47022;DHT22;32779;52.264;6.154;2023-05-01T03:40:58;8.80;99.90
47022;DHT22;32779;52.264;6.154;2023-05-01T03:43:23;8.70;99.90
47022;DHT22;32779;52.264;6.154;2023-05-01T03:45:50;8.70;99.90
47022;DHT22;32779;52.264;6.154;2023-05-01T03:48:16;8.70;99.90
47022;DHT22;32779;52.264;6.154;2023-05-01T03:50:42;8.70;99.90
47022;DHT22;32779;52.264;6.154;2023-05-01T03:53:08;8.70;99.90
47022;DHT22;32779;52.264;6.154;2023-05-01T03:55:33;8.70;99.90
47022;DHT22;32779;52.264;6.154;2023-05-01T03:57:59;8.70;99.90
47022;DHT22;32779;52.264;6.154;2023-05-01T04:00:25;8.60;99.90
47022;DHT22;32779;52.264;6.154;2023-05-01T04:02:51;8.50;99.90
47022;DHT22;32779;52.264;6.154;2023-05-01T04:05:17;8.40;99.90
47022;DHT22;32779;52.264;6.154;2023-05-01T04:07:43;8.40;99.90
47022;DHT22;32779;52.264;6.154;2023-05-01T04:10:09;8.30;99.90
47022;DHT22;32779;52.264;6.154;2023-05-01T04:12:35;8.30;99.90
47022;DHT22;32779;52.264;6.154;2023-05-01T04:15:00;8.30;99.90
47022;DHT22;32779;52.264;6.154;2023-05-01T04:17:27;8.20;99.90
47022;DHT22;32779;52.264;6.154;2023-05-01T04:19:52;8.20;99.90
47022;DHT22;32779;52.264;6.154;2023-05-01T04:22:20;8.20;99.90
47022;DHT22;32779;52.264;6.154;2023-05-01T04:24:46;8.20;99.90
47022;DHT22;32779;52.264;6.154;2023-05-01T04:27:11;8.20;99.90
47022;DHT22;32779;52.264;6.154;2023-05-01T04:29:37;8.20;99.90
47022;DHT22;32779;52.264;6.154;2023-05-01T04:32:02;8.30;99.90
47022;DHT22;32779;52.264;6.154;2023-05-01T04:34:28;8.30;99.90
47022;DHT22;32779;52.264;6.154;2023-05-01T04:36:54;8.30;99.90
47022;DHT22;32779;52.264;6.154;2023-05-01T04:39:22;8.40;99.90
47022;DHT22;32779;52.264;6.154;2023-05-01T04:41:47;8.30;99.90
47022;DHT22;32779;52.264;6.154;2023-05-01T04:44:13;8.40;99.90
47022;DHT22;32779;52.264;6.154;2023-05-01T04:46:39;8.40;99.90
47022;DHT22;32779;52.264;6.154;2023-05-01T04:49:04;8.40;99.90
47022;DHT22;32779;52.264;6.154;2023-05-01T04:51:30;8.40;99.90
47022;DHT22;32779;52.264;6.154;2023-05-01T04:53:56;8.50;99.90
47022;DHT22;32779;52.264;6.154;2023-05-01T04:56:21;8.60;99.90
47022;DHT22;32779;52.264;6.154;2023-05-01T04:58:47;8.70;99.90
47022;DHT22;32779;52.264;6.154;2023-05-01T05:01:13;8.70;99.90
47022;DHT22;32779;52.264;6.154;2023-05-01T05:03:38;8.70;99.90
47022;DHT22;32779;52.264;6.154;2023-05-01T05:06:04;8.70;99.90
47022;DHT22;32779;52.264;6.154;2023-05-01T05:08:29;8.80;99.90
47022;DHT22;32779;52.264;6.154;2023-05-01T05:10:59;8.80;99.90
47022;DHT22;32779;52.264;6.154;2023-05-01T05:13:25;8.90;99.90
47022;DHT22;32779;52.264;6.154;2023-05-01T05:15:50;9.00;99.90
47022;DHT22;32779;52.264;6.154;2023-05-01T05:18:16;9.00;99.90
47022;DHT22;32779;52.264;6.154;2023-05-01T05:20:41;9.10;99.90
47022;DHT22;32779;52.264;6.154;2023-05-01T05:23:07;9.10;99.90
47022;DHT22;32779;52.264;6.154;2023-05-01T05:25:33;9.20;99.90
47022;DHT22;32779;52.264;6.154;2023-05-01T05:27:58;9.20;99.90
47022;DHT22;32779;52.264;6.154;2023-05-01T05:30:25;9.20;99.90
47022;DHT22;32779;52.264;6.154;2023-05-01T05:32:50;9.20;99.90
47022;DHT22;32779;52.264;6.154;2023-05-01T05:35:16;9.30;99.90
47022;DHT22;32779;52.264;6.154;2023-05-01T05:37:42;9.30;99.90
47022;DHT22;32779;52.264;6.154;2023-05-01T05:40:08;9.30;99.90
47022;DHT22;32779;52.264;6.154;2023-05-01T05:42:34;9.30;99.90
47022;DHT22;32779;52.264;6.154;2023-05-01T05:44:59;9.30;99.90
47022;DHT22;32779;52.264;6.154;2023-05-01T05:47:25;9.40;99.90
47022;DHT22;32779;52.264;6.154;2023-05-01T05:49:50;9.40;99.90
47022;DHT22;32779;52.264;6.154;2023-05-01T05:52:16;9.40;99.90
47022;DHT22;32779;52.264;6.154;2023-05-01T05:54:42;9.50;99.90
47022;DHT22;32779;52.264;6.154;2023-05-01T05:57:07;9.50;99.90
47022;DHT22;32779;52.264;6.154;2023-05-01T05:59:33;9.50;99.90
47022;DHT22;32779;52.264;6.154;2023-05-01T06:01:59;9.60;99.90
47022;DHT22;32779;52.264;6.154;2023-05-01T06:04:25;9.60;99.90
47022;DHT22;32779;52.264;6.154;2023-05-01T06:06:51;9.70;99.90
47022;DHT22;32779;52.264;6.154;2023-05-01T06:09:16;9.70;99.90
47022;DHT22;32779;52.264;6.154;2023-05-01T06:11:43;9.80;99.90
47022;DHT22;32779;52.264;6.154;2023-05-01T06:14:09;9.80;99.90
47022;DHT22;32779;52.264;6.154;2023-05-01T06:16:35;9.90;99.90
47022;DHT22;32779;52.264;6.154;2023-05-01T06:19:01;9.90;99.90
47022;DHT22;32779;52.264;6.154;2023-05-01T06:21:27;9.90;99.90
47022;DHT22;32779;52.264;6.154;2023-05-01T06:23:52;10.00;99.90
47022;DHT22;32779;52.264;6.154;2023-05-01T06:26:18;10.10;99.90
47022;DHT22;32779;52.264;6.154;2023-05-01T06:28:43;10.10;99.90
47022;DHT22;32779;52.264;6.154;2023-05-01T06:31:09;10.20;99.90
47022;DHT22;32779;52.264;6.154;2023-05-01T06:33:34;10.20;99.90
47022;DHT22;32779;52.264;6.154;2023-05-01T06:36:00;10.20;99.90
47022;DHT22;32779;52.264;6.154;2023-05-01T06:38:26;10.30;99.90
47022;DHT22;32779;52.264;6.154;2023-05-01T06:40:52;10.30;99.90
47022;DHT22;32779;52.264;6.154;2023-05-01T06:43:17;10.40;99.90
47022;DHT22;32779;52.264;6.154;2023-05-01T06:45:44;10.50;99.90
47022;DHT22;32779;52.264;6.154;2023-05-01T06:48:09;10.50;99.90
47022;DHT22;32779;52.264;6.154;2023-05-01T06:50:35;10.50;99.90
47022;DHT22;32779;52.264;6.154;2023-05-01T06:53:01;10.50;99.90
47022;DHT22;32779;52.264;6.154;2023-05-01T06:55:27;10.60;99.90
47022;DHT22;32779;52.264;6.154;2023-05-01T06:57:56;10.60;99.90
47022;DHT22;32779;52.264;6.154;2023-05-01T07:00:22;10.60;99.90
47022;DHT22;32779;52.264;6.154;2023-05-01T07:02:48;10.70;99.90
47022;DHT22;32779;52.264;6.154;2023-05-01T07:05:13;10.60;99.90
47022;DHT22;32779;52.264;6.154;2023-05-01T07:07:39;10.70;99.90
47022;DHT22;32779;52.264;6.154;2023-05-01T07:10:05;10.70;99.90
47022;DHT22;32779;52.264;6.154;2023-05-01T07:12:31;10.80;99.90
47022;DHT22;32779;52.264;6.154;2023-05-01T07:14:57;10.80;99.90
47022;DHT22;32779;52.264;6.154;2023-05-01T07:17:22;10.90;99.90
47022;DHT22;32779;52.264;6.154;2023-05-01T07:19:48;11.00;99.90
47022;DHT22;32779;52.264;6.154;2023-05-01T07:22:14;11.10;99.90
47022;DHT22;32779;52.264;6.154;2023-05-01T07:24:40;11.20;99.90
47022;DHT22;32779;52.264;6.154;2023-05-01T07:27:07;11.40;99.90
47022;DHT22;32779;52.264;6.154;2023-05-01T07:29:36;11.50;99.90
47022;DHT22;32779;52.264;6.154;2023-05-01T07:32:02;11.60;99.90
47022;DHT22;32779;52.264;6.154;2023-05-01T07:34:30;11.70;99.90
47022;DHT22;32779;52.264;6.154;2023-05-01T07:36:56;11.80;99.90
47022;DHT22;32779;52.264;6.154;2023-05-01T07:39:22;11.90;99.90
47022;DHT22;32779;52.264;6.154;2023-05-01T07:41:47;12.00;99.90
47022;DHT22;32779;52.264;6.154;2023-05-01T07:44:13;12.00;99.90
47022;DHT22;32779;52.264;6.154;2023-05-01T07:46:38;12.20;99.90
47022;DHT22;32779;52.264;6.154;2023-05-01T07:49:04;12.20;99.90
47022;DHT22;32779;52.264;6.154;2023-05-01T07:51:30;12.30;99.90
47022;DHT22;32779;52.264;6.154;2023-05-01T07:53:56;12.40;99.90
47022;DHT22;32779;52.264;6.154;2023-05-01T07:56:21;12.50;99.90
47022;DHT22;32779;52.264;6.154;2023-05-01T07:58:47;12.60;99.90
47022;DHT22;32779;52.264;6.154;2023-05-01T08:01:12;12.60;99.90
47022;DHT22;32779;52.264;6.154;2023-05-01T08:03:38;12.70;99.90
47022;DHT22;32779;52.264;6.154;2023-05-01T08:06:04;12.80;99.90
47022;DHT22;32779;52.264;6.154;2023-05-01T08:08:30;12.80;99.90
47022;DHT22;32779;52.264;6.154;2023-05-01T08:10:55;13.00;99.90
47022;DHT22;32779;52.264;6.154;2023-05-01T08:13:21;13.10;99.90
47022;DHT22;32779;52.264;6.154;2023-05-01T08:15:47;13.20;99.90
47022;DHT22;32779;52.264;6.154;2023-05-01T08:18:13;13.30;99.90
47022;DHT22;32779;52.264;6.154;2023-05-01T08:20:48;13.40;99.90
47022;DHT22;32779;52.264;6.154;2023-05-01T08:23:15;13.60;99.90
47022;DHT22;32779;52.264;6.154;2023-05-01T08:25:42;13.80;99.90
47022;DHT22;32779;52.264;6.154;2023-05-01T08:28:08;13.90;99.90
47022;DHT22;32779;52.264;6.154;2023-05-01T08:30:33;14.10;99.90
47022;DHT22;32779;52.264;6.154;2023-05-01T08:32:59;14.20;99.90
47022;DHT22;32779;52.264;6.154;2023-05-01T08:35:25;14.30;99.90
47022;DHT22;32779;52.264;6.154;2023-05-01T08:37:50;14.40;99.90
47022;DHT22;32779;52.264;6.154;2023-05-01T08:40:16;14.50;99.90
47022;DHT22;32779;52.264;6.154;2023-05-01T08:42:42;14.70;99.90
47022;DHT22;32779;52.264;6.154;2023-05-01T08:45:08;14.90;99.90
47022;DHT22;32779;52.264;6.154;2023-05-01T08:47:36;15.10;99.90
47022;DHT22;32779;52.264;6.154;2023-05-01T08:50:09;15.20;99.90
47022;DHT22;32779;52.264;6.154;2023-05-01T08:52:39;15.30;99.90
47022;DHT22;32779;52.264;6.154;2023-05-01T08:55:08;15.50;99.90
47022;DHT22;32779;52.264;6.154;2023-05-01T08:57:36;15.50;99.90
47022;DHT22;32779;52.264;6.154;2023-05-01T09:00:02;15.70;99.80
47022;DHT22;32779;52.264;6.154;2023-05-01T09:02:30;15.80;99.90
47022;DHT22;32779;52.264;6.154;2023-05-01T09:05:00;15.90;99.90
47022;DHT22;32779;52.264;6.154;2023-05-01T09:07:26;16.10;99.90
47022;DHT22;32779;52.264;6.154;2023-05-01T09:09:52;16.20;99.90
47022;DHT22;32779;52.264;6.154;2023-05-01T09:14:51;16.50;98.90
47022;DHT22;32779;52.264;6.154;2023-05-01T09:17:19;16.60;98.90
47022;DHT22;32779;52.264;6.154;2023-05-01T09:19:46;16.60;98.30
47022;DHT22;32779;52.264;6.154;2023-05-01T09:22:12;16.60;98.90
47022;DHT22;32779;52.264;6.154;2023-05-01T09:24:37;16.60;98.00
47022;DHT22;32779;52.264;6.154;2023-05-01T09:27:03;16.50;98.20
47022;DHT22;32779;52.264;6.154;2023-05-01T09:29:49;16.60;98.60
47022;DHT22;32779;52.264;6.154;2023-05-01T09:32:33;16.60;98.50
47022;DHT22;32779;52.264;6.154;2023-05-01T09:35:10;16.70;97.80
47022;DHT22;32779;52.264;6.154;2023-05-01T09:37:36;16.70;98.40
47022;DHT22;32779;52.264;6.154;2023-05-01T09:40:06;16.90;97.80
47022;DHT22;32779;52.264;6.154;2023-05-01T09:42:33;17.00;97.50
47022;DHT22;32779;52.264;6.154;2023-05-01T09:44:59;17.00;97.30
47022;DHT22;32779;52.264;6.154;2023-05-01T09:47:27;17.10;96.80
47022;DHT22;32779;52.264;6.154;2023-05-01T09:49:55;17.30;96.40
47022;DHT22;32779;52.264;6.154;2023-05-01T09:52:24;17.40;96.60
47022;DHT22;32779;52.264;6.154;2023-05-01T09:55:14;17.60;97.40
47022;DHT22;32779;52.264;6.154;2023-05-01T09:57:40;17.70;96.50
47022;DHT22;32779;52.264;6.154;2023-05-01T10:00:09;17.80;95.90
47022;DHT22;32779;52.264;6.154;2023-05-01T10:02:35;17.80;96.00
47022;DHT22;32779;52.264;6.154;2023-05-01T10:05:01;17.70;96.50
47022;DHT22;32779;52.264;6.154;2023-05-01T10:07:28;17.70;96.50
47022;DHT22;32779;52.264;6.154;2023-05-01T10:09:54;17.70;96.70
47022;DHT22;32779;52.264;6.154;2023-05-01T10:12:27;17.60;96.90
47022;DHT22;32779;52.264;6.154;2023-05-01T10:14:54;17.70;96.80
47022;DHT22;32779;52.264;6.154;2023-05-01T10:17:20;17.70;96.20
47022;DHT22;32779;52.264;6.154;2023-05-01T10:19:46;17.60;96.00
47022;DHT22;32779;52.264;6.154;2023-05-01T10:22:13;17.80;96.20
47022;DHT22;32779;52.264;6.154;2023-05-01T10:24:39;17.80;96.20
47022;DHT22;32779;52.264;6.154;2023-05-01T10:27:05;17.80;95.10
47022;DHT22;32779;52.264;6.154;2023-05-01T10:29:33;17.80;94.30
47022;DHT22;32779;52.264;6.154;2023-05-01T10:32:00;17.80;94.60
47022;DHT22;32779;52.264;6.154;2023-05-01T10:34:27;17.90;94.80
47022;DHT22;32779;52.264;6.154;2023-05-01T10:37:05;17.80;94.00
47022;DHT22;32779;52.264;6.154;2023-05-01T10:39:34;17.80;94.40
47022;DHT22;32779;52.264;6.154;2023-05-01T10:42:05;17.90;94.10
47022;DHT22;32779;52.264;6.154;2023-05-01T10:44:31;18.00;94.40
47022;DHT22;32779;52.264;6.154;2023-05-01T10:46:59;18.10;94.40
47022;DHT22;32779;52.264;6.154;2023-05-01T10:49:24;18.20;94.40
47022;DHT22;32779;52.264;6.154;2023-05-01T10:51:57;18.20;94.30
47022;DHT22;32779;52.264;6.154;2023-05-01T10:54:32;18.30;94.10
47022;DHT22;32779;52.264;6.154;2023-05-01T10:57:00;18.40;93.80
47022;DHT22;32779;52.264;6.154;2023-05-01T10:59:27;18.40;92.70
47022;DHT22;32779;52.264;6.154;2023-05-01T11:02:21;18.40;93.30
47022;DHT22;32779;52.264;6.154;2023-05-01T11:04:49;18.40;92.60
47022;DHT22;32779;52.264;6.154;2023-05-01T11:07:16;18.30;94.40
47022;DHT22;32779;52.264;6.154;2023-05-01T11:09:51;18.30;95.10
47022;DHT22;32779;52.264;6.154;2023-05-01T11:15:11;18.30;95.30
47022;DHT22;32779;52.264;6.154;2023-05-01T11:20:09;18.40;95.50
47022;DHT22;32779;52.264;6.154;2023-05-01T11:22:36;18.40;95.40
47022;DHT22;32779;52.264;6.154;2023-05-01T11:25:04;18.50;94.60
47022;DHT22;32779;52.264;6.154;2023-05-01T11:27:46;18.60;95.10
47022;DHT22;32779;52.264;6.154;2023-05-01T11:30:12;18.60;95.00
47022;DHT22;32779;52.264;6.154;2023-05-01T11:32:38;18.70;95.50
47022;DHT22;32779;52.264;6.154;2023-05-01T11:35:07;18.60;94.20
47022;DHT22;32779;52.264;6.154;2023-05-01T11:37:40;18.50;94.70
47022;DHT22;32779;52.264;6.154;2023-05-01T11:42:43;18.50;94.40
47022;DHT22;32779;52.264;6.154;2023-05-01T11:45:08;18.60;94.70
47022;DHT22;32779;52.264;6.154;2023-05-01T11:47:38;18.70;95.20
47022;DHT22;32779;52.264;6.154;2023-05-01T11:50:05;18.80;93.40
47022;DHT22;32779;52.264;6.154;2023-05-01T11:52:47;18.90;93.40
47022;DHT22;32779;52.264;6.154;2023-05-01T11:55:14;18.90;93.10
47022;DHT22;32779;52.264;6.154;2023-05-01T11:57:51;19.00;92.70
47022;DHT22;32779;52.264;6.154;2023-05-01T12:00:30;19.00;92.30
47022;DHT22;32779;52.264;6.154;2023-05-01T12:02:58;19.10;91.80
47022;DHT22;32779;52.264;6.154;2023-05-01T12:05:25;19.20;92.90
47022;DHT22;32779;52.264;6.154;2023-05-01T12:07:51;19.30;92.40
47022;DHT22;32779;52.264;6.154;2023-05-01T12:10:30;19.40;91.80
47022;DHT22;32779;52.264;6.154;2023-05-01T12:12:55;19.40;92.20
47022;DHT22;32779;52.264;6.154;2023-05-01T12:15:21;19.50;92.30
47022;DHT22;32779;52.264;6.154;2023-05-01T12:17:47;19.50;92.20
47022;DHT22;32779;52.264;6.154;2023-05-01T12:20:12;19.50;91.80
47022;DHT22;32779;52.264;6.154;2023-05-01T12:22:48;19.40;91.20
47022;DHT22;32779;52.264;6.154;2023-05-01T12:25:15;19.30;91.80
47022;DHT22;32779;52.264;6.154;2023-05-01T12:27:44;19.30;92.00
47022;DHT22;32779;52.264;6.154;2023-05-01T12:30:10;19.40;91.60
47022;DHT22;32779;52.264;6.154;2023-05-01T12:32:36;19.30;90.80
47022;DHT22;32779;52.264;6.154;2023-05-01T12:35:11;19.30;91.20
47022;DHT22;32779;52.264;6.154;2023-05-01T12:37:37;19.20;90.30
47022;DHT22;32779;52.264;6.154;2023-05-01T12:40:02;19.00;91.40
47022;DHT22;32779;52.264;6.154;2023-05-01T12:42:29;18.80;90.90
47022;DHT22;32779;52.264;6.154;2023-05-01T12:45:00;18.80;91.80
47022;DHT22;32779;52.264;6.154;2023-05-01T12:47:26;18.80;91.00
47022;DHT22;32779;52.264;6.154;2023-05-01T12:49:59;18.70;91.20
47022;DHT22;32779;52.264;6.154;2023-05-01T12:52:25;18.60;91.30
47022;DHT22;32779;52.264;6.154;2023-05-01T12:55:01;18.70;92.20
47022;DHT22;32779;52.264;6.154;2023-05-01T12:57:27;18.80;91.90
47022;DHT22;32779;52.264;6.154;2023-05-01T12:59:57;18.90;92.00
47022;DHT22;32779;52.264;6.154;2023-05-01T13:02:29;19.10;92.30
47022;DHT22;32779;52.264;6.154;2023-05-01T13:05:05;19.10;91.60
47022;DHT22;32779;52.264;6.154;2023-05-01T13:07:31;19.30;92.00
47022;DHT22;32779;52.264;6.154;2023-05-01T13:09:57;19.30;91.90
47022;DHT22;32779;52.264;6.154;2023-05-01T13:12:26;19.40;91.60
47022;DHT22;32779;52.264;6.154;2023-05-01T13:14:52;19.50;91.90
47022;DHT22;32779;52.264;6.154;2023-05-01T13:17:31;19.50;92.20
47022;DHT22;32779;52.264;6.154;2023-05-01T13:20:01;19.50;92.30
47022;DHT22;32779;52.264;6.154;2023-05-01T13:24:57;19.20;91.70
47022;DHT22;32779;52.264;6.154;2023-05-01T13:27:23;19.10;92.20
47022;DHT22;32779;52.264;6.154;2023-05-01T13:29:53;19.20;93.10
47022;DHT22;32779;52.264;6.154;2023-05-01T13:32:20;19.30;93.00
47022;DHT22;32779;52.264;6.154;2023-05-01T13:34:45;19.30;92.80
47022;DHT22;32779;52.264;6.154;2023-05-01T13:37:11;19.30;92.30
47022;DHT22;32779;52.264;6.154;2023-05-01T13:39:40;19.20;92.20
47022;DHT22;32779;52.264;6.154;2023-05-01T13:42:07;19.10;93.20
47022;DHT22;32779;52.264;6.154;2023-05-01T13:44:42;19.20;93.40
47022;DHT22;32779;52.264;6.154;2023-05-01T13:47:09;19.40;92.90
47022;DHT22;32779;52.264;6.154;2023-05-01T13:49:40;19.40;92.90
47022;DHT22;32779;52.264;6.154;2023-05-01T13:52:06;19.50;93.00
47022;DHT22;32779;52.264;6.154;2023-05-01T13:54:32;19.50;92.60
47022;DHT22;32779;52.264;6.154;2023-05-01T13:56:59;19.40;92.30
47022;DHT22;32779;52.264;6.154;2023-05-01T13:59:32;19.20;92.90
47022;DHT22;32779;52.264;6.154;2023-05-01T14:02:01;19.20;93.20
47022;DHT22;32779;52.264;6.154;2023-05-01T14:04:34;19.30;93.70
47022;DHT22;32779;52.264;6.154;2023-05-01T14:06:59;19.40;92.80
47022;DHT22;32779;52.264;6.154;2023-05-01T14:09:26;19.40;92.30
47022;DHT22;32779;52.264;6.154;2023-05-01T14:11:52;19.40;92.50
47022;DHT22;32779;52.264;6.154;2023-05-01T14:14:19;19.40;92.70
47022;DHT22;32779;52.264;6.154;2023-05-01T14:16:45;19.40;92.90
47022;DHT22;32779;52.264;6.154;2023-05-01T14:19:14;19.30;93.70
47022;DHT22;32779;52.264;6.154;2023-05-01T14:21:40;19.20;94.00
47022;DHT22;32779;52.264;6.154;2023-05-01T14:24:07;19.10;94.20
47022;DHT22;32779;52.264;6.154;2023-05-01T14:26:33;18.90;94.50
47022;DHT22;32779;52.264;6.154;2023-05-01T14:28:58;18.80;94.90
47022;DHT22;32779;52.264;6.154;2023-05-01T14:31:28;18.70;95.40
47022;DHT22;32779;52.264;6.154;2023-05-01T14:34:01;18.60;95.50
47022;DHT22;32779;52.264;6.154;2023-05-01T14:36:28;18.30;95.80
47022;DHT22;32779;52.264;6.154;2023-05-01T14:39:01;18.20;96.30
47022;DHT22;32779;52.264;6.154;2023-05-01T14:41:28;18.10;96.60
47022;DHT22;32779;52.264;6.154;2023-05-01T14:43:54;18.10;96.20
47022;DHT22;32779;52.264;6.154;2023-05-01T14:48:48;18.00;96.30
47022;DHT22;32779;52.264;6.154;2023-05-01T14:51:17;17.90;96.20
47022;DHT22;32779;52.264;6.154;2023-05-01T14:53:43;17.90;95.90
47022;DHT22;32779;52.264;6.154;2023-05-01T14:56:09;17.80;96.00
47022;DHT22;32779;52.264;6.154;2023-05-01T14:58:34;17.80;96.00
47022;DHT22;32779;52.264;6.154;2023-05-01T15:01:00;17.70;96.30
47022;DHT22;32779;52.264;6.154;2023-05-01T15:03:27;17.60;96.50
47022;DHT22;32779;52.264;6.154;2023-05-01T15:05:52;17.50;96.30
47022;DHT22;32779;52.264;6.154;2023-05-01T15:08:18;17.40;96.40
47022;DHT22;32779;52.264;6.154;2023-05-01T15:10:44;17.30;96.40
47022;DHT22;32779;52.264;6.154;2023-05-01T15:13:09;17.30;96.20
47022;DHT22;32779;52.264;6.154;2023-05-01T15:15:35;17.30;96.40
47022;DHT22;32779;52.264;6.154;2023-05-01T15:18:00;17.30;96.40
47022;DHT22;32779;52.264;6.154;2023-05-01T15:20:28;17.30;96.60
47022;DHT22;32779;52.264;6.154;2023-05-01T15:22:53;17.30;96.60
47022;DHT22;32779;52.264;6.154;2023-05-01T15:25:19;17.40;96.30
47022;DHT22;32779;52.264;6.154;2023-05-01T15:27:45;17.50;95.30
47022;DHT22;32779;52.264;6.154;2023-05-01T15:30:10;17.60;96.00
47022;DHT22;32779;52.264;6.154;2023-05-01T15:32:36;17.60;96.00
47022;DHT22;32779;52.264;6.154;2023-05-01T15:35:02;17.50;96.00
47022;DHT22;32779;52.264;6.154;2023-05-01T15:37:29;17.50;95.90
47022;DHT22;32779;52.264;6.154;2023-05-01T15:39:56;17.40;96.60
47022;DHT22;32779;52.264;6.154;2023-05-01T15:42:22;17.30;96.40
47022;DHT22;32779;52.264;6.154;2023-05-01T15:44:47;17.30;96.60
47022;DHT22;32779;52.264;6.154;2023-05-01T15:47:13;17.30;97.20
47022;DHT22;32779;52.264;6.154;2023-05-01T15:49:38;17.40;96.80
47022;DHT22;32779;52.264;6.154;2023-05-01T15:52:04;17.40;96.50
47022;DHT22;32779;52.264;6.154;2023-05-01T15:54:30;17.40;96.80
47022;DHT22;32779;52.264;6.154;2023-05-01T15:56:56;17.40;96.50
47022;DHT22;32779;52.264;6.154;2023-05-01T15:59:21;17.30;96.40
47022;DHT22;32779;52.264;6.154;2023-05-01T16:01:47;17.30;96.40
47022;DHT22;32779;52.264;6.154;2023-05-01T16:04:12;17.30;96.70
47022;DHT22;32779;52.264;6.154;2023-05-01T16:06:38;17.40;96.50
47022;DHT22;32779;52.264;6.154;2023-05-01T16:09:04;17.50;96.50